Map

Track Data

SID SEASON NUMBER BASIN SUBBASIN NAME ISO_TIME NATURE LAT LON WMO_WIND WMO_PRES WMO_AGENCY TRACK_TYPE DIST2LAND LANDFALL IFLAG USA_AGENCY USA_ATCF_ID USA_LAT USA_LON USA_RECORD USA_STATUS USA_WIND USA_PRES USA_SSHS USA_R34_NE USA_R34_SE USA_R34_SW USA_R34_NW USA_R50_NE USA_R50_SE USA_R50_SW USA_R50_NW USA_R64_NE USA_R64_SE USA_R64_SW USA_R64_NW USA_POCI USA_ROCI USA_RMW USA_EYE TOKYO_LAT TOKYO_LON TOKYO_GRADE TOKYO_WIND TOKYO_PRES TOKYO_R50_DIR TOKYO_R50_LONG TOKYO_R50_SHORT TOKYO_R30_DIR TOKYO_R30_LONG TOKYO_R30_SHORT TOKYO_LAND CMA_LAT CMA_LON CMA_CAT CMA_WIND CMA_PRES HKO_LAT HKO_LON HKO_CAT HKO_WIND HKO_PRES NEWDELHI_LAT NEWDELHI_LON NEWDELHI_GRADE NEWDELHI_WIND NEWDELHI_PRES NEWDELHI_CI NEWDELHI_DP NEWDELHI_POCI REUNION_LAT REUNION_LON REUNION_TYPE REUNION_WIND REUNION_PRES REUNION_TNUM REUNION_CI REUNION_RMW REUNION_R34_NE REUNION_R34_SE REUNION_R34_SW REUNION_R34_NW REUNION_R50_NE REUNION_R50_SE REUNION_R50_SW REUNION_R50_NW REUNION_R64_NE REUNION_R64_SE REUNION_R64_SW REUNION_R64_NW BOM_LAT BOM_LON BOM_TYPE BOM_WIND BOM_PRES BOM_TNUM BOM_CI BOM_RMW BOM_R34_NE BOM_R34_SE BOM_R34_SW BOM_R34_NW BOM_R50_NE BOM_R50_SE BOM_R50_SW BOM_R50_NW BOM_R64_NE BOM_R64_SE BOM_R64_SW BOM_R64_NW BOM_ROCI BOM_POCI BOM_EYE BOM_POS_METHOD BOM_PRES_METHOD NADI_LAT NADI_LON NADI_CAT NADI_WIND NADI_PRES WELLINGTON_LAT WELLINGTON_LON WELLINGTON_WIND WELLINGTON_PRES DS824_LAT DS824_LON DS824_STAGE DS824_WIND DS824_PRES TD9636_LAT TD9636_LON TD9636_STAGE TD9636_WIND TD9636_PRES TD9635_LAT TD9635_LON TD9635_WIND TD9635_PRES TD9635_ROCI NEUMANN_LAT NEUMANN_LON NEUMANN_CLASS NEUMANN_WIND NEUMANN_PRES MLC_LAT MLC_LON MLC_CLASS MLC_WIND MLC_PRES USA_GUST BOM_GUST BOM_GUST_PER REUNION_GUST REUNION_GUST_PER USA_SEAHGT USA_SEARAD_NE USA_SEARAD_SE USA_SEARAD_SW USA_SEARAD_NW STORM_SPEED STORM_DIR
1886217N24141 1886 20 WP MM NOT_NAMED 1886-08-04 16:00:00 NR 23.8000 141.400 main 1202 1197 __________O___ -1 23.8000 141.400 7 3 253
1886217N24141 1886 20 WP MM NOT_NAMED 1886-08-04 18:00:00 NR 23.7668 141.288 main 1197 1193 __________P___ -1 23.7668 141.288 7 3 252
1886217N24141 1886 20 WP MM NOT_NAMED 1886-08-04 21:00:00 NR 23.7168 141.117 main 1199 1191 __________P___ -1 23.7168 141.117 7 3 252
1886217N24141 1886 20 WP MM NOT_NAMED 1886-08-05 00:00:00 NR 23.6667 140.943 main 1191 1191 __________P___ -1 23.6667 140.943 7 3 253
1886217N24141 1886 20 WP MM NOT_NAMED 1886-08-05 03:00:00 NR 23.6167 140.762 main 1197 1193 __________P___ -1 23.6167 140.762 7 3 253
1886217N24141 1886 20 WP MM NOT_NAMED 1886-08-05 04:00:00 NR 23.6000 140.700 main 1193 1189 __________O___ -1 23.6000 140.700 7 4 254
1886217N24141 1886 20 WP MM NOT_NAMED 1886-08-05 06:00:00 NR 23.5666 140.572 main 1189 1185 __________P___ -1 23.5666 140.572 7 4 254
1886217N24141 1886 20 WP MM NOT_NAMED 1886-08-05 09:00:00 NR 23.5166 140.375 main 1192 1185 __________P___ -1 23.5166 140.375 7 4 255
1886217N24141 1886 20 WP MM NOT_NAMED 1886-08-05 12:00:00 NR 23.4666 140.172 main 1185 1181 __________P___ -1 23.4666 140.172 7 4 255
1886217N24141 1886 20 WP MM NOT_NAMED 1886-08-05 15:00:00 NR 23.4166 139.968 main 1189 1185 __________P___ -1 23.4166 139.968 7 4 255
1886217N24141 1886 20 WP MM NOT_NAMED 1886-08-05 16:00:00 NR 23.4000 139.900 main 1185 1182 __________O___ -1 23.4000 139.900 7 4 255
1886217N24141 1886 20 WP MM NOT_NAMED 1886-08-05 18:00:00 NR 23.3666 139.764 main 1182 1179 __________P___ -1 23.3666 139.764 7 4 255
1886217N24141 1886 20 WP MM NOT_NAMED 1886-08-05 21:00:00 NR 23.3166 139.560 main 1186 1180 __________P___ -1 23.3166 139.560 7 4 255
1886217N24141 1886 20 WP MM NOT_NAMED 1886-08-06 00:00:00 NR 23.2666 139.359 main 1180 1178 __________P___ -1 23.2666 139.359 7 4 255
1886217N24141 1886 20 WP MM NOT_NAMED 1886-08-06 03:00:00 NR 23.2167 139.163 main 1186 1183 __________P___ -1 23.2167 139.163 7 4 254
1886217N24141 1886 20 WP MM NOT_NAMED 1886-08-06 04:00:00 NR 23.2000 139.100 main 1183 1180 __________O___ -1 23.2000 139.100 7 3 254
1886217N24141 1886 20 WP MM NOT_NAMED 1886-08-06 06:00:00 NR 23.1692 138.980 main 1180 1176 __________P___ -1 23.1692 138.980 7 3 254
1886217N24141 1886 20 WP MM NOT_NAMED 1886-08-06 09:00:00 NR 23.1231 138.807 main 1179 1167 __________P___ -1 23.1231 138.807 7 3 253
1886217N24141 1886 20 WP MM NOT_NAMED 1886-08-06 12:00:00 NR 23.0744 138.636 main 1167 1167 __________P___ -1 23.0744 138.636 7 3 252
1886217N24141 1886 20 WP MM NOT_NAMED 1886-08-06 15:00:00 NR 23.0200 138.460 main 1170 1164 __________P___ -1 23.0200 138.460 7 3 251
1886217N24141 1886 20 WP MM NOT_NAMED 1886-08-06 16:00:00 NR 23.0000 138.400 main 1164 1158 __________O___ -1 23.0000 138.400 7 4 248
1886217N24141 1886 20 WP MM NOT_NAMED 1886-08-06 18:00:00 NR 22.9504 138.275 main 1158 1156 __________P___ -1 22.9504 138.275 7 4 246
1886217N24141 1886 20 WP MM NOT_NAMED 1886-08-06 21:00:00 NR 22.8696 138.081 main 1156 1151 __________P___ -1 22.8696 138.081 7 4 246
1886217N24141 1886 20 WP MM NOT_NAMED 1886-08-07 00:00:00 NR 22.7895 137.880 main 1155 1149 __________P___ -1 22.7895 137.880 7 4 248
1886217N24141 1886 20 WP MM NOT_NAMED 1886-08-07 03:00:00 NR 22.7195 137.671 main 1153 1148 __________P___ -1 22.7195 137.671 7 4 251
1886217N24141 1886 20 WP MM NOT_NAMED 1886-08-07 04:00:00 NR 22.7000 137.600 main 1148 1143 __________O___ -1 22.7000 137.600 7 4 256
1886217N24141 1886 20 WP MM NOT_NAMED 1886-08-07 06:00:00 NR 22.6719 137.456 main 1143 1132 __________P___ -1 22.6719 137.456 7 4 260
1886217N24141 1886 20 WP MM NOT_NAMED 1886-08-07 09:00:00 NR 22.6423 137.233 main 1137 1126 __________P___ -1 22.6423 137.233 7 4 263
1886217N24141 1886 20 WP MM NOT_NAMED 1886-08-07 12:00:00 NR 22.6224 137.006 main 1126 1115 __________P___ -1 22.6224 137.006 7 4 265
1886217N24141 1886 20 WP MM NOT_NAMED 1886-08-07 15:00:00 NR 22.6058 136.776 main 1115 1110 __________P___ -1 22.6058 136.776 7 4 265
1886217N24141 1886 20 WP MM NOT_NAMED 1886-08-07 16:00:00 NR 22.6000 136.700 main 1110 1105 __________O___ -1 22.6000 136.700 7 4 264
1886217N24141 1886 20 WP MM NOT_NAMED 1886-08-07 18:00:00 NR 22.5833 136.550 main 1105 1089 __________P___ -1 22.5833 136.550 7 4 263
1886217N24141 1886 20 WP MM NOT_NAMED 1886-08-07 21:00:00 NR 22.5582 136.325 main 1089 1089 __________P___ -1 22.5582 136.325 7 4 263
1886217N24141 1886 20 WP MM NOT_NAMED 1886-08-08 00:00:00 NR 22.5332 136.100 main 1089 1079 __________P___ -1 22.5332 136.100 7 4 263
1886217N24141 1886 20 WP MM NOT_NAMED 1886-08-08 03:00:00 NR 22.5083 135.875 main 1079 1075 __________P___ -1 22.5083 135.875 7 4 263
1886217N24141 1886 20 WP MM NOT_NAMED 1886-08-08 04:00:00 NR 22.5000 135.800 main 1075 1066 __________O___ -1 22.5000 135.800 7 4 262
1886217N24141 1886 20 WP MM NOT_NAMED 1886-08-08 06:00:00 NR 22.4807 135.647 main 1066 1057 __________P___ -1 22.4807 135.647 7 4 262
1886217N24141 1886 20 WP MM NOT_NAMED 1886-08-08 09:00:00 NR 22.4517 135.418 main 1057 1057 __________P___ -1 22.4517 135.418 7 4 263
1886217N24141 1886 20 WP MM NOT_NAMED 1886-08-08 12:00:00 NR 22.4254 135.192 main 1058 1050 __________P___ -1 22.4254 135.192 7 4 264
1886217N24141 1886 20 WP MM NOT_NAMED 1886-08-08 15:00:00 NR 22.4050 134.972 main 1050 1046 __________P___ -1 22.4050 134.972 7 4 265
1886217N24141 1886 20 WP MM NOT_NAMED 1886-08-08 16:00:00 NR 22.4000 134.900 main 1046 1042 __________O___ -1 22.4000 134.900 7 4 267
1886217N24141 1886 20 WP MM NOT_NAMED 1886-08-08 18:00:00 NR 22.3942 134.761 main 1042 1035 __________P___ -1 22.3942 134.761 7 4 269
1886217N24141 1886 20 WP MM NOT_NAMED 1886-08-08 21:00:00 NR 22.3919 134.559 main 1035 1028 __________P___ -1 22.3919 134.559 7 4 270
1886217N24141 1886 20 WP MM NOT_NAMED 1886-08-09 00:00:00 NR 22.3944 134.361 main 1028 1021 __________P___ -1 22.3944 134.361 7 4 271
1886217N24141 1886 20 WP MM NOT_NAMED 1886-08-09 03:00:00 NR 22.3987 134.165 main 1021 1017 __________P___ -1 22.3987 134.165 7 4 271
1886217N24141 1886 20 WP MM NOT_NAMED 1886-08-09 04:00:00 NR 22.4000 134.100 main 1017 1014 __________O___ -1 22.4000 134.100 7 4 270
1886217N24141 1886 20 WP MM NOT_NAMED 1886-08-09 06:00:00 NR 22.3973 133.969 main 1014 1008 __________P___ -1 22.3973 133.969 7 4 269
1886217N24141 1886 20 WP MM NOT_NAMED 1886-08-09 09:00:00 NR 22.3932 133.773 main 1008 1002 __________P___ -1 22.3932 133.773 7 4 269
1886217N24141 1886 20 WP MM NOT_NAMED 1886-08-09 12:00:00 NR 22.3920 133.575 main 1002 997 __________P___ -1 22.3920 133.575 7 4 271
1886217N24141 1886 20 WP MM NOT_NAMED 1886-08-09 15:00:00 NR 22.3966 133.370 main 997 994 __________P___ -1 22.3966 133.370 7 4 272
1886217N24141 1886 20 WP MM NOT_NAMED 1886-08-09 16:00:00 NR 22.4000 133.300 main 994 991 __________O___ -1 22.4000 133.300 7 4 273
1886217N24141 1886 20 WP MM NOT_NAMED 1886-08-09 18:00:00 NR 22.4083 133.156 main 991 984 __________P___ -1 22.4083 133.156 7 4 275
1886217N24141 1886 20 WP MM NOT_NAMED 1886-08-09 21:00:00 NR 22.4270 132.933 main 984 969 __________P___ -1 22.4270 132.933 7 4 276
1886217N24141 1886 20 WP MM NOT_NAMED 1886-08-10 00:00:00 NR 22.4533 132.705 main 969 965 __________P___ -1 22.4533 132.705 7 4 278
1886217N24141 1886 20 WP MM NOT_NAMED 1886-08-10 03:00:00 NR 22.4871 132.476 main 965 964 __________P___ -1 22.4871 132.476 7 4 279
1886217N24141 1886 20 WP MM NOT_NAMED 1886-08-10 04:00:00 NR 22.5000 132.400 main 964 960 __________O___ -1 22.5000 132.400 7 4 280
1886217N24141 1886 20 WP MM NOT_NAMED 1886-08-10 06:00:00 NR 22.5249 132.250 main 960 946 __________P___ -1 22.5249 132.250 7 4 281
1886217N24141 1886 20 WP MM NOT_NAMED 1886-08-10 09:00:00 NR 22.5686 132.025 main 946 944 __________P___ -1 22.5686 132.025 7 4 283
1886217N24141 1886 20 WP MM NOT_NAMED 1886-08-10 12:00:00 NR 22.6199 131.800 main 944 931 __________P___ -1 22.6199 131.800 7 4 285
1886217N24141 1886 20 WP MM NOT_NAMED 1886-08-10 15:00:00 NR 22.6787 131.575 main 931 930 __________P___ -1 22.6787 131.575 7 4 286
1886217N24141 1886 20 WP MM NOT_NAMED 1886-08-10 16:00:00 NR 22.7000 131.500 main 930 929 __________O___ -1 22.7000 131.500 7 4 287
1886217N24141 1886 20 WP MM NOT_NAMED 1886-08-10 18:00:00 NR 22.7415 131.360 main 929 917 __________P___ -1 22.7415 131.360 7 4 289
1886217N24141 1886 20 WP MM NOT_NAMED 1886-08-10 21:00:00 NR 22.8100 131.151 main 917 904 __________P___ -1 22.8100 131.151 7 4 290
1886217N24141 1886 20 WP MM NOT_NAMED 1886-08-11 00:00:00 NR 22.8863 130.931 main 904 893 __________P___ -1 22.8863 130.931 7 5 291
1886217N24141 1886 20 WP MM NOT_NAMED 1886-08-11 03:00:00 NR 22.9703 130.688 main 893 893 __________P___ -1 22.9703 130.688 7 5 291
1886217N24141 1886 20 WP MM NOT_NAMED 1886-08-11 04:00:00 NR 23.0000 130.600 main 893 878 __________O___ -1 23.0000 130.600 3 5 288
1886217N24141 1886 20 WP MM NOT_NAMED 1886-08-11 06:00:00 NR 23.0557 130.406 main 878 848 __________P___ -1 23.0557 130.406 3 6 287
1886217N24141 1886 20 WP MM NOT_NAMED 1886-08-11 09:00:00 NR 23.1455 130.090 main 848 815 __________P___ -1 23.1455 130.090 3 6 288
1886217N24141 1886 20 WP MM NOT_NAMED 1886-08-11 12:00:00 NR 23.2455 129.755 main 815 770 __________P___ -1 23.2455 129.755 3 7 289
1886217N24141 1886 20 WP MM NOT_NAMED 1886-08-11 15:00:00 NR 23.3587 129.413 main 770 761 __________P___ -1 23.3587 129.413 3 7 290
1886217N24141 1886 20 WP MM NOT_NAMED 1886-08-11 16:00:00 NR 23.4000 129.300 main 761 738 __________O___ -1 23.4000 129.300 4 6 291
1886217N24141 1886 20 WP MM NOT_NAMED 1886-08-11 18:00:00 NR 23.4753 129.086 main 738 706 __________P___ -1 23.4753 129.086 4 6 292
1886217N24141 1886 20 WP MM NOT_NAMED 1886-08-11 21:00:00 NR 23.6006 128.764 main 706 663 __________P___ -1 23.6006 128.764 4 7 295
1886217N24141 1886 20 WP MM NOT_NAMED 1886-08-12 00:00:00 NR 23.7493 128.441 main 663 629 __________P___ -1 23.7493 128.441 4 7 299
1886217N24141 1886 20 WP MM NOT_NAMED 1886-08-12 03:00:00 NR 23.9307 128.111 main 629 616 __________P___ -1 23.9307 128.111 4 7 302
1886217N24141 1886 20 WP MM NOT_NAMED 1886-08-12 04:00:00 NR 24.0000 128.000 main 616 592 __________O___ -1 24.0000 128.000 4 8 306
1886217N24141 1886 20 WP MM NOT_NAMED 1886-08-12 06:00:00 NR 24.1547 127.772 main 592 549 __________P___ -1 24.1547 127.772 4 8 309
1886217N24141 1886 20 WP MM NOT_NAMED 1886-08-12 09:00:00 NR 24.4183 127.425 main 549 515 __________P___ -1 24.4183 127.425 4 8 311
1886217N24141 1886 20 WP MM NOT_NAMED 1886-08-12 12:00:00 NR 24.7060 127.072 main 515 473 __________P___ -1 24.7060 127.072 4 9 312
1886217N24141 1886 20 WP MM NOT_NAMED 1886-08-12 15:00:00 NR 25.0021 126.718 main 473 463 __________P___ -1 25.0021 126.718 4 9 313
1886217N24141 1886 20 WP MM NOT_NAMED 1886-08-12 16:00:00 NR 25.1000 126.600 main 463 443 __________O___ -1 25.1000 126.600 4 8 312
1886217N24141 1886 20 WP MM NOT_NAMED 1886-08-12 18:00:00 NR 25.2696 126.387 main 443 415 __________P___ -1 25.2696 126.387 4 8 311
1886217N24141 1886 20 WP MM NOT_NAMED 1886-08-12 21:00:00 NR 25.5240 126.067 main 415 381 __________P___ -1 25.5240 126.067 4 8 311
1886217N24141 1886 20 WP MM NOT_NAMED 1886-08-13 00:00:00 NR 25.7926 125.727 main 381 352 __________P___ -1 25.7926 125.727 4 9 311
1886217N24141 1886 20 WP MM NOT_NAMED 1886-08-13 03:00:00 NR 26.0911 125.343 main 352 347 __________P___ -1 26.0911 125.343 4 9 311
1886217N24141 1886 20 WP MM NOT_NAMED 1886-08-13 04:00:00 NR 26.2000 125.200 main 347 329 __________O___ -1 26.2000 125.200 4 11 313
1886217N24141 1886 20 WP MM NOT_NAMED 1886-08-13 06:00:00 NR 26.4640 124.898 main 335 316 __________P___ -1 26.4640 124.898 4 12 314
1886217N24141 1886 20 WP MM NOT_NAMED 1886-08-13 09:00:00 NR 26.8921 124.395 main 316 243 __________P___ -1 26.8921 124.395 4 13 312
1886217N24141 1886 20 WP MM NOT_NAMED 1886-08-13 12:00:00 NR 27.3175 123.834 main 243 170 __________P___ -1 27.3175 123.834 4 13 307
1886217N24141 1886 20 WP MM NOT_NAMED 1886-08-13 15:00:00 NR 27.6936 123.217 main 170 148 __________P___ -1 27.6936 123.217 4 13 303
1886217N24141 1886 20 WP MM NOT_NAMED 1886-08-13 16:00:00 NR 27.8000 123.000 main 148 94 __________O___ -1 27.8000 123.000 4 14 294
1886217N24141 1886 20 WP MM NOT_NAMED 1886-08-13 18:00:00 NR 27.9689 122.514 main 94 14 __________P___ -1 27.9689 122.514 4 14 288
1886217N24141 1886 20 WP MM NOT_NAMED 1886-08-13 21:00:00 NR 28.1590 121.741 main 14 0 __________P___ -1 28.1590 121.741 4 14 283
1886217N24141 1886 20 WP MM NOT_NAMED 1886-08-14 00:00:00 NR 28.2885 120.978 main 0 0 __________P___ -1 28.2885 120.978 4 13 280
1886217N24141 1886 20 WP MM NOT_NAMED 1886-08-14 03:00:00 NR 28.3765 120.296 main 0 0 __________P___ -1 28.3765 120.296 4 12 278
1886217N24141 1886 20 WP MM NOT_NAMED 1886-08-14 04:00:00 NR 28.4000 120.100 main 0 0 __________O___ -1 28.4000 120.100 4 9 279
1886217N24141 1886 20 WP MM NOT_NAMED 1886-08-14 06:00:00 NR 28.4467 119.778 main 0 0 __________P___ -1 28.4467 119.778 4 8 279
1886217N24141 1886 20 WP MM NOT_NAMED 1886-08-14 09:00:00 NR 28.4929 119.396 main 0 0 __________P___ -1 28.4929 119.396 4 6 278
1886217N24141 1886 20 WP MM NOT_NAMED 1886-08-14 12:00:00 NR 28.5295 119.106 main 0 0 __________P___ -1 28.5295 119.106 4 5 280
1886217N24141 1886 20 WP MM NOT_NAMED 1886-08-14 15:00:00 NR 28.5778 118.872 main 0 0 __________P___ -1 28.5778 118.872 4 4 285
1886217N24141 1886 20 WP MM NOT_NAMED 1886-08-14 16:00:00 NR 28.6000 118.800 main 0 0 __________O___ -1 28.6000 118.800 4 4 293
1886217N24141 1886 20 WP MM NOT_NAMED 1886-08-14 18:00:00 NR 28.6568 118.660 main 0 0 __________P___ -1 28.6568 118.660 4 4 299
1886217N24141 1886 20 WP MM NOT_NAMED 1886-08-14 21:00:00 NR 28.7683 118.457 main 0 0 __________P___ -1 28.7683 118.457 4 4 305
1886217N24141 1886 20 WP MM NOT_NAMED 1886-08-15 00:00:00 NR 28.9026 118.260 main 0 0 __________P___ -1 28.9026 118.260 4 4 309
1886217N24141 1886 20 WP MM NOT_NAMED 1886-08-15 03:00:00 NR 29.0498 118.065 main 0 0 __________P___ -1 29.0498 118.065 4 5 311
1886217N24141 1886 20 WP MM NOT_NAMED 1886-08-15 04:00:00 NR 29.1000 118.000 main 0 __________O___ -1 29.1000 118.000 4 5 309

Digital Typhoon Data and Search

About IBTrACS Database

This database is a web-friendly format of International Best Track Archive for Climate Stewardship (IBTrACS), a global best track data archive curated by NOAA dating back to 1842.

Updated: 2021-10-25